Time;durP1;ratioP1;P1;durP2;ratioP2;P2;SDS_P1;SDS_P2;PMS_P1;PMS_P2;Temp;Humidity;BMP_temperature;BMP_pressure;BME280_temperature;BME280_humidity;BME280_pressure;Samples;Min_cycle;Max_cycle;Signal;HPM_P1;HPM_P2
2023/08/31 00:01:18;;;;;;;7.03;6.33;;;;;;;13.09;93.03;100055.19;5039106;28;20204;-73
2023/08/31 00:03:44;;;;;;;9.23;6.87;;;;;;;13.10;93.05;100058.59;5038123;28;20222;-73
2023/08/31 00:06:11;;;;;;;8.90;6.87;;;;;;;13.10;92.79;100066.56;5039079;28;20218;-73
2023/08/31 00:08:37;;;;;;;7.70;6.83;;;;;;;13.10;92.74;100064.66;5040344;28;20198;-75
2023/08/31 00:11:03;;;;;;;7.63;6.03;;;;;;;13.13;92.92;100066.63;5037050;28;20219;-73
2023/08/31 00:13:31;;;;;;;11.20;7.00;;;;;;;13.14;93.32;100068.13;5039079;28;20234;-75
2023/08/31 00:15:59;;;;;;;7.37;6.67;;;;;;;13.17;93.03;100074.63;5039582;28;20203;-74
2023/08/31 00:18:26;;;;;;;10.03;6.17;;;;;;;13.17;92.74;100078.03;5038938;28;20286;-73
2023/08/31 00:20:53;;;;;;;9.20;7.30;;;;;;;13.17;92.91;100078.03;5034643;28;21108;-73
2023/08/31 00:23:19;;;;;;;8.53;7.73;;;;;;;13.17;92.59;100077.28;5039134;28;20225;-73
2023/08/31 00:25:48;;;;;;;7.93;7.20;;;;;;;13.18;92.80;100073.50;5038109;28;20218;-74
2023/08/31 00:28:15;;;;;;;9.33;8.37;;;;;;;13.20;92.69;100076.56;5039776;28;20798;-74
2023/08/31 00:30:44;;;;;;;9.70;8.50;;;;;;;13.21;92.88;100072.78;5037657;28;20689;-73
2023/08/31 00:33:11;;;;;;;10.30;8.13;;;;;;;13.23;92.55;100073.97;5019928;28;20243;-73
2023/08/31 00:35:37;;;;;;;9.80;8.60;;;;;;;13.26;92.73;100069.84;5015970;28;20694;-73
2023/08/31 00:38:04;;;;;;;10.20;8.00;;;;;;;13.32;92.90;100076.38;5038039;28;20203;-73
2023/08/31 00:40:31;;;;;;;9.10;8.30;;;;;;;13.35;92.77;100083.63;5014153;28;20249;-74
2023/08/31 00:42:58;;;;;;;8.47;7.57;;;;;;;13.40;92.71;100076.13;5017009;28;20210;-72
2023/08/31 00:45:24;;;;;;;10.10;8.07;;;;;;;13.45;92.70;100075.09;5014254;28;20353;-73
2023/08/31 00:47:52;;;;;;;8.47;7.67;;;;;;;13.48;92.63;100080.44;5033775;28;20208;-73
2023/08/31 00:50:20;;;;;;;9.27;8.33;;;;;;;13.50;91.69;100078.19;5030654;28;20238;-73
2023/08/31 00:52:47;;;;;;;9.83;7.90;;;;;;;13.50;91.58;100075.53;5015516;28;20221;-72
2023/08/31 00:55:14;;;;;;;10.83;7.60;;;;;;;13.52;91.40;100073.31;5031609;28;20677;-73
2023/08/31 00:57:41;;;;;;;8.53;7.73;;;;;;;13.53;91.38;100082.78;5013509;28;20349;-73
2023/08/31 01:00:08;;;;;;;10.80;7.80;;;;;;;13.55;91.09;100087.75;5034511;28;20203;-73
2023/08/31 01:02:41;;;;;;;9.87;7.77;;;;;;;13.55;90.97;100082.44;5014066;28;20200;-74
2023/08/31 01:05:15;;;;;;;8.57;7.63;;;;;;;13.55;90.71;100080.53;5010416;28;20230;-73
2023/08/31 01:07:54;;;;;;;8.40;7.60;;;;;;;13.53;90.63;100074.81;5015424;28;20230;-73
2023/08/31 01:10:26;;;;;;;8.20;6.43;;;;;;;13.53;90.58;100079.34;5009747;28;20211;-73
2023/08/31 01:12:59;;;;;;;7.20;6.50;;;;;;;13.53;90.42;100079.34;5008674;28;20207;-73
2023/08/31 01:15:31;;;;;;;9.10;6.60;;;;;;;13.52;90.44;100081.25;5015368;28;20211;-73
2023/08/31 01:17:58;;;;;;;8.13;7.33;;;;;;;13.53;90.37;100080.13;5032188;28;20291;-74
2023/08/31 01:20:32;;;;;;;8.03;7.23;;;;;;;13.55;90.27;100083.19;5034732;28;20203;-73
2023/08/31 01:23:04;;;;;;;7.73;7.03;;;;;;;13.57;90.66;100075.63;5014601;28;20280;-74
2023/08/31 01:25:32;;;;;;;8.07;7.27;;;;;;;13.59;90.45;100076.06;5013925;28;20241;-73
2023/08/31 01:28:00;;;;;;;8.47;7.53;;;;;;;13.62;90.56;100072.66;5012613;28;20211;-73
2023/08/31 01:30:30;;;;;;;10.93;7.33;;;;;;;13.67;90.59;100066.31;5013485;28;20207;-73
2023/08/31 01:32:56;;;;;;;8.20;6.80;;;;;;;13.70;90.62;100071.66;5033540;28;20268;-74
2023/08/31 01:35:23;;;;;;;7.20;6.50;;;;;;;13.75;90.59;100070.56;5032755;28;20705;-73
2023/08/31 01:37:54;;;;;;;7.70;7.00;;;;;;;13.78;90.44;100069.88;5013566;28;20204;-73
2023/08/31 01:40:27;;;;;;;8.13;7.27;;;;;;;13.81;90.53;100074.47;5028577;28;20238;-73
2023/08/31 01:42:56;;;;;;;7.73;6.80;;;;;;;13.85;90.14;100081.34;5028782;28;20577;-73
2023/08/31 01:45:23;;;;;;;8.23;6.53;;;;;;;13.88;90.23;100072.66;5028591;28;20231;-73
2023/08/31 01:47:50;;;;;;;6.90;6.30;;;;;;;13.91;89.88;100063.97;5007159;28;20207;-73
2023/08/31 01:50:18;;;;;;;8.17;6.43;;;;;;;13.95;89.94;100066.69;5028152;28;20632;-73
2023/08/31 01:52:45;;;;;;;8.63;6.40;;;;;;;13.97;89.73;100064.44;5011493;28;20343;-73
2023/08/31 01:55:13;;;;;;;7.17;6.10;;;;;;;14.01;89.76;100054.63;5026787;28;20473;-74
2023/08/31 01:57:39;;;;;;;6.37;5.63;;;;;;;14.03;89.91;100063.00;5006910;28;21279;-74
2023/08/31 02:00:13;;;;;;;6.70;6.10;;;;;;;14.05;90.16;100066.84;5013064;28;20202;-72
2023/08/31 02:02:43;;;;;;;7.47;6.10;;;;;;;14.06;89.92;100059.63;5032255;28;20204;-73
2023/08/31 02:05:09;;;;;;;6.13;5.53;;;;;;;14.08;89.36;100062.69;5027179;28;20284;-73
2023/08/31 02:07:36;;;;;;;8.13;6.47;;;;;;;14.09;89.35;100064.22;5030917;28;21150;-73
2023/08/31 02:10:06;;;;;;;6.97;5.70;;;;;;;14.09;89.53;100062.34;5009817;28;20221;-74
2023/08/31 02:12:32;;;;;;;6.73;6.07;;;;;;;14.10;89.11;100049.81;5011911;28;20257;-73
2023/08/31 02:14:59;;;;;;;8.67;6.07;;;;;;;14.12;88.99;100050.97;5010967;28;20219;-73
2023/08/31 02:17:27;;;;;;;6.03;5.37;;;;;;;14.12;89.35;100061.59;5030154;28;20193;-74
2023/08/31 02:19:53;;;;;;;5.93;5.40;;;;;;;14.13;89.20;100057.06;5004858;28;20205;-73
2023/08/31 02:22:20;;;;;;;6.50;5.90;;;;;;;14.13;89.00;100057.06;5010538;28;20204;-73
2023/08/31 02:24:47;;;;;;;7.13;5.43;;;;;;;14.14;88.87;100061.25;5011590;28;20217;-73
2023/08/31 02:27:14;;;;;;;6.80;5.30;;;;;;;14.14;89.07;100070.00;5030796;28;20218;-73
2023/08/31 02:29:40;;;;;;;6.70;6.00;;;;;;;14.13;88.72;100073.00;5010936;28;20881;-73
2023/08/31 02:32:08;;;;;;;9.60;5.93;;;;;;;14.11;88.76;100081.31;5009588;28;20257;-73
2023/08/31 02:34:35;;;;;;;7.27;5.60;;;;;;;14.11;88.65;100083.97;5005471;28;20725;-73
2023/08/31 02:37:02;;;;;;;6.40;5.57;;;;;;;14.12;88.58;100098.78;5011909;28;20207;-73
2023/08/31 02:39:28;;;;;;;7.77;5.60;;;;;;;14.11;88.61;100109.75;5010827;28;20200;-74
2023/08/31 02:41:55;;;;;;;8.27;5.90;;;;;;;14.09;88.41;100106.69;5006270;28;20540;-72
2023/08/31 02:44:21;;;;;;;6.40;5.37;;;;;;;14.08;88.87;100116.53;5010454;28;20796;-73
2023/08/31 02:46:47;;;;;;;6.63;5.47;;;;;;;14.08;88.65;100118.44;5025763;28;20211;-73
2023/08/31 02:49:14;;;;;;;8.30;5.77;;;;;;;14.08;89.04;100118.44;5031657;28;20216;-73
2023/08/31 02:51:42;;;;;;;6.67;5.93;;;;;;;14.07;88.77;100119.56;5023890;28;20340;-73
2023/08/31 02:54:09;;;;;;;8.60;6.50;;;;;;;14.10;89.01;100132.88;5009238;28;20239;-74
2023/08/31 02:56:35;;;;;;;7.40;5.93;;;;;;;14.09;88.95;100130.59;5008192;28;20200;-74
2023/08/31 02:59:01;;;;;;;8.40;5.87;;;;;;;14.11;88.85;100128.31;5030143;28;20215;-73
2023/08/31 03:01:28;;;;;;;11.10;6.43;;;;;;;14.13;89.06;100132.16;5004094;28;20208;-72
2023/08/31 03:03:54;;;;;;;7.03;6.33;;;;;;;14.17;89.58;100140.16;5008828;28;20309;-73
2023/08/31 03:06:22;;;;;;;8.10;6.33;;;;;;;14.18;89.34;100131.84;5003513;28;20208;-74
2023/08/31 03:08:49;;;;;;;6.37;5.77;;;;;;;14.22;89.52;100135.34;5025660;28;20541;-73
2023/08/31 03:11:16;;;;;;;9.00;6.83;;;;;;;14.25;89.33;100139.19;5009154;28;20214;-73
2023/08/31 03:13:42;;;;;;;6.47;5.80;;;;;;;14.26;89.79;100141.47;5025867;28;20244;-73
2023/08/31 03:16:09;;;;;;;6.93;5.43;;;;;;;14.31;89.65;100140.38;5009782;28;20209;-74
2023/08/31 03:18:35;;;;;;;8.37;6.00;;;;;;;14.31;89.54;100141.16;5007679;28;20710;-73
2023/08/31 03:21:02;;;;;;;6.73;6.13;;;;;;;14.33;89.41;100148.78;5007591;28;21286;-73
2023/08/31 03:23:30;;;;;;;6.27;5.67;;;;;;;14.33;89.39;100157.50;5008055;28;20279;-73
2023/08/31 03:25:58;;;;;;;6.73;6.07;;;;;;;14.36;88.81;100151.47;5007923;28;20636;-74
2023/08/31 03:28:26;;;;;;;6.73;5.57;;;;;;;14.38;89.23;100153.78;5027556;28;20202;-72
2023/08/31 03:30:57;;;;;;;9.07;5.67;;;;;;;14.40;88.90;100156.84;5008213;28;20215;-74
2023/08/31 03:33:23;;;;;;;7.53;5.37;;;;;;;14.41;88.69;100161.00;5009303;28;20314;-74
2023/08/31 03:35:50;;;;;;;8.13;5.40;;;;;;;14.43;89.14;100151.56;5025483;28;20213;-74
2023/08/31 03:38:16;;;;;;;7.03;5.03;;;;;;;14.43;88.90;100161.44;5004464;28;20935;-73
2023/08/31 03:40:44;;;;;;;6.30;5.70;;;;;;;14.45;88.82;100177.75;5003804;28;20206;-73
2023/08/31 03:43:12;;;;;;;6.33;5.27;;;;;;;14.46;89.07;100174.75;5007172;28;20199;-73
2023/08/31 03:45:39;;;;;;;5.50;4.70;;;;;;;14.49;88.90;100175.94;5022993;28;20212;-72
2023/08/31 03:48:06;;;;;;;5.23;4.73;;;;;;;14.49;88.49;100175.94;5002892;28;20215;-74
2023/08/31 03:50:32;;;;;;;5.07;4.57;;;;;;;14.52;87.96;100186.59;5006608;28;20199;-74
2023/08/31 03:52:58;;;;;;;4.97;4.50;;;;;;;14.53;87.92;100172.19;5021994;28;20221;-73
2023/08/31 03:55:25;;;;;;;4.83;4.40;;;;;;;14.55;88.17;100174.47;5009128;28;20201;-73
2023/08/31 03:57:52;;;;;;;5.13;4.63;;;;;;;14.55;87.77;100185.09;5034277;28;20193;-73
2023/08/31 04:00:23;;;;;;;5.20;4.70;;;;;;;14.55;88.06;100180.53;5015175;28;20320;-74
2023/08/31 04:02:50;;;;;;;5.13;4.63;;;;;;;14.55;87.73;100187.75;5033864;28;20205;-74
2023/08/31 04:05:21;;;;;;;4.97;4.40;;;;;;;14.55;87.97;100185.09;5015861;28;20754;-74
2023/08/31 04:07:48;;;;;;;4.77;4.20;;;;;;;14.52;87.85;100189.25;5032890;28;20218;-73
2023/08/31 04:10:14;;;;;;;5.07;4.57;;;;;;;14.51;88.01;100197.56;5030992;28;20205;-74
2023/08/31 04:12:42;;;;;;;6.50;4.57;;;;;;;14.50;87.88;100198.72;5015879;28;20735;-74
2023/08/31 04:15:10;;;;;;;4.50;4.10;;;;;;;14.48;87.97;100196.41;5015984;28;20266;-73
2023/08/31 04:17:38;;;;;;;5.33;4.83;;;;;;;14.45;87.90;100183.84;5017235;28;20220;-73
2023/08/31 04:20:05;;;;;;;7.37;4.43;;;;;;;14.42;87.95;100197.84;5033515;28;20554;-73
2023/08/31 04:22:32;;;;;;;4.33;3.93;;;;;;;14.44;87.67;100200.16;5034398;28;20212;-74
2023/08/31 04:24:58;;;;;;;4.77;4.37;;;;;;;14.41;87.44;100195.53;5036351;28;20225;-74
2023/08/31 04:27:25;;;;;;;4.80;4.13;;;;;;;14.38;87.56;100206.91;5038454;28;20199;-74
2023/08/31 04:29:51;;;;;;;4.97;3.93;;;;;;;14.34;87.94;100212.16;5039259;28;20210;-74
2023/08/31 04:32:17;;;;;;;3.93;3.63;;;;;;;14.32;88.00;100216.28;5039063;28;20200;-74
2023/08/31 04:34:45;;;;;;;6.03;4.47;;;;;;;14.30;88.04;100219.31;5038662;28;20629;-74
2023/08/31 04:37:12;;;;;;;5.13;4.10;;;;;;;14.27;88.14;100216.59;5017527;28;20226;-73
2023/08/31 04:39:38;;;;;;;4.67;4.13;;;;;;;14.25;88.04;100224.94;5039942;28;20240;-74
2023/08/31 04:42:05;;;;;;;4.57;4.17;;;;;;;14.25;88.36;100224.16;5019664;28;20208;-74
2023/08/31 04:44:31;;;;;;;4.43;4.03;;;;;;;14.26;88.30;100221.16;5037258;28;20236;-72
2023/08/31 04:46:58;;;;;;;4.63;4.10;;;;;;;14.28;88.33;100226.13;5038963;28;20195;-73
2023/08/31 04:49:24;;;;;;;4.60;4.03;;;;;;;14.29;88.49;100224.97;5039989;28;20192;-73
2023/08/31 04:51:52;;;;;;;3.90;3.60;;;;;;;14.27;88.62;100224.56;5038264;28;20228;-74
2023/08/31 04:54:18;;;;;;;6.70;4.37;;;;;;;14.27;88.17;100219.25;5038546;28;20221;-74
2023/08/31 04:56:44;;;;;;;3.80;3.43;;;;;;;14.26;88.31;100233.66;5037993;28;20214;-74
2023/08/31 04:59:11;;;;;;;4.03;3.47;;;;;;;14.24;88.29;100218.06;5037271;28;20212;-74
2023/08/31 05:01:37;;;;;;;4.07;3.43;;;;;;;14.25;87.85;100218.84;5037416;28;20216;-74
2023/08/31 05:04:04;;;;;;;3.60;3.30;;;;;;;14.24;88.17;100226.03;5036898;28;20226;-74
2023/08/31 05:06:30;;;;;;;3.73;3.43;;;;;;;14.26;87.68;100226.47;5037567;28;20213;-74
2023/08/31 05:08:58;;;;;;;3.93;3.53;;;;;;;14.29;88.32;100228.38;5037556;28;20196;-74
2023/08/31 05:11:25;;;;;;;4.20;3.80;;;;;;;14.33;87.69;100236.44;5038000;28;20914;-74
2023/08/31 05:13:51;;;;;;;4.33;3.93;;;;;;;14.38;87.87;100244.84;5038521;28;20302;-74
2023/08/31 05:16:18;;;;;;;6.60;4.10;;;;;;;14.44;88.06;100243.41;5037568;28;20217;-74
2023/08/31 05:18:44;;;;;;;4.70;4.20;;;;;;;14.49;87.73;100253.72;5035146;28;20214;-73
2023/08/31 05:21:10;;;;;;;4.70;4.30;;;;;;;14.53;87.53;100256.44;5037995;28;20210;-74
2023/08/31 05:23:37;;;;;;;4.17;3.77;;;;;;;14.55;86.94;100260.25;5013127;28;20226;-74
2023/08/31 05:26:04;;;;;;;4.83;3.87;;;;;;;14.59;86.88;100260.31;5035902;28;20301;-74
2023/08/31 05:28:31;;;;;;;4.50;3.90;;;;;;;14.63;86.59;100261.13;5018989;28;20663;-74
2023/08/31 05:30:58;;;;;;;4.17;3.33;;;;;;;14.68;86.67;100261.59;5035858;28;20677;-74
2023/08/31 05:33:27;;;;;;;5.77;4.13;;;;;;;14.72;86.97;100266.94;5031872;28;20223;-73
2023/08/31 05:35:53;;;;;;;4.43;3.50;;;;;;;14.75;86.74;100266.97;5028160;28;20210;-74
2023/08/31 05:38:20;;;;;;;4.00;3.33;;;;;;;14.76;86.34;100265.09;5029991;28;20293;-74
2023/08/31 05:40:46;;;;;;;3.67;3.33;;;;;;;14.78;85.51;100276.13;5030362;28;20202;-74
2023/08/31 05:43:14;;;;;;;4.47;3.50;;;;;;;14.77;85.14;100271.94;5030750;28;20210;-75
2023/08/31 05:45:41;;;;;;;3.67;3.07;;;;;;;14.76;85.51;100275.75;5030685;28;20197;-74
2023/08/31 05:48:08;;;;;;;3.50;3.20;;;;;;;14.75;85.08;100287.50;5012542;28;20294;-74
2023/08/31 05:50:36;;;;;;;3.60;2.77;;;;;;;14.76;85.04;100279.16;5029715;28;20213;-74
2023/08/31 05:53:03;;;;;;;3.17;2.83;;;;;;;14.77;85.66;100290.56;5029077;28;20296;-74
2023/08/31 05:55:29;;;;;;;3.40;3.10;;;;;;;14.75;84.51;100279.53;5010907;28;20211;-74
2023/08/31 05:57:56;;;;;;;4.87;3.60;;;;;;;14.75;84.58;100282.94;5005046;28;20642;-74
2023/08/31 06:00:23;;;;;;;3.30;3.00;;;;;;;14.80;85.28;100281.88;5028489;28;20568;-74
2023/08/31 06:02:50;;;;;;;3.87;3.43;;;;;;;14.83;84.83;100271.28;5027488;28;20214;-74
2023/08/31 06:05:16;;;;;;;3.87;2.93;;;;;;;14.88;84.65;100272.84;5028827;28;21131;-74
2023/08/31 06:07:43;;;;;;;4.03;3.50;;;;;;;14.92;85.19;100279.75;5029036;28;20260;-74
2023/08/31 06:10:10;;;;;;;4.03;2.93;;;;;;;14.94;84.54;100279.38;5027813;28;20194;-74
2023/08/31 06:12:37;;;;;;;2.70;2.50;;;;;;;14.96;84.67;100287.78;5027560;28;20199;-74
2023/08/31 06:15:03;;;;;;;3.30;3.00;;;;;;;14.96;84.11;100293.84;5027467;28;20304;-74
2023/08/31 06:17:31;;;;;;;3.17;2.70;;;;;;;14.97;83.73;100294.63;5027846;28;20249;-74
2023/08/31 06:19:58;;;;;;;3.33;2.90;;;;;;;14.98;84.31;100302.25;5028636;28;20261;-73
2023/08/31 06:22:24;;;;;;;3.33;2.97;;;;;;;14.97;83.74;100300.72;5008571;28;20214;-74
2023/08/31 06:24:51;;;;;;;3.67;2.97;;;;;;;14.98;84.26;100301.47;5026455;28;20219;-74
2023/08/31 06:27:18;;;;;;;3.70;2.77;;;;;;;15.01;84.57;100306.81;5026244;28;20210;-74
2023/08/31 06:29:44;;;;;;;2.83;2.60;;;;;;;15.03;83.95;100303.81;5007985;28;20720;-73
2023/08/31 06:32:10;;;;;;;2.87;2.57;;;;;;;15.03;82.99;100311.78;5008135;28;20211;-74
2023/08/31 06:34:38;;;;;;;4.63;2.60;;;;;;;15.06;83.37;100311.81;5027759;28;20230;-74
2023/08/31 06:37:05;;;;;;;2.90;2.70;;;;;;;15.11;83.62;100313.41;5006058;28;20222;-74
2023/08/31 06:39:32;;;;;;;3.47;2.60;;;;;;;15.18;83.59;100313.50;5027730;28;20214;-74
2023/08/31 06:41:59;;;;;;;3.03;2.70;;;;;;;15.26;83.32;100312.47;5027241;28;20210;-74
2023/08/31 06:44:31;;;;;;;6.43;3.20;;;;;;;15.35;83.71;100319.06;5001856;28;20214;-74
2023/08/31 06:46:57;;;;;;;3.30;3.00;;;;;;;15.43;83.50;100319.91;5025703;28;20225;-74
2023/08/31 06:49:23;;;;;;;3.97;2.90;;;;;;;15.52;82.94;100318.47;5024573;28;20207;-74
2023/08/31 06:51:53;;;;;;;4.20;2.90;;;;;;;15.61;82.98;100321.63;5025444;28;20211;-74
2023/08/31 06:54:20;;;;;;;3.90;2.67;;;;;;;15.73;82.13;100324.03;5022951;28;20227;-74
2023/08/31 06:56:46;;;;;;;3.00;2.70;;;;;;;15.84;81.64;100319.56;5025362;28;20203;-75
2023/08/31 06:59:13;;;;;;;2.60;2.40;;;;;;;15.94;81.25;100326.88;5024133;28;20210;-73
2023/08/31 07:01:39;;;;;;;2.77;2.50;;;;;;;16.00;80.37;100335.31;5023695;28;20318;-74
2023/08/31 07:04:07;;;;;;;3.70;2.90;;;;;;;16.05;80.35;100338.41;5023020;28;20812;-74
2023/08/31 07:06:34;;;;;;;3.20;2.60;;;;;;;16.10;79.68;100342.63;5025043;28;20592;-74
2023/08/31 07:09:05;;;;;;;4.10;2.40;;;;;;;16.11;79.76;100336.19;5023539;28;20207;-75
2023/08/31 07:11:32;;;;;;;3.17;2.63;;;;;;;16.11;79.42;100344.16;5021957;28;20218;-74
2023/08/31 07:13:59;;;;;;;3.90;2.97;;;;;;;16.10;78.51;100343.38;5022555;28;20273;-75
2023/08/31 07:16:25;;;;;;;4.47;3.43;;;;;;;16.14;78.78;100344.19;5022860;28;20210;-74
2023/08/31 07:18:52;;;;;;;3.60;3.30;;;;;;;16.18;79.16;100342.34;5023615;28;20913;-74
2023/08/31 07:21:19;;;;;;;4.33;3.50;;;;;;;16.20;77.85;100341.97;5021932;28;20203;-74
2023/08/31 07:23:45;;;;;;;4.00;3.40;;;;;;;16.26;78.79;100349.22;5022952;28;20257;-74
2023/08/31 07:26:13;;;;;;;5.13;4.43;;;;;;;16.27;77.72;100348.13;5022827;28;20796;-73
2023/08/31 07:28:39;;;;;;;4.23;3.90;;;;;;;16.32;79.44;100355.00;5022299;28;20211;-74
2023/08/31 07:31:07;;;;;;;4.40;4.00;;;;;;;16.34;77.47;100356.16;5021164;28;20195;-74
2023/08/31 07:33:35;;;;;;;5.17;3.97;;;;;;;16.45;77.76;100367.69;5020986;28;20288;-74
2023/08/31 07:36:03;;;;;;;4.50;4.10;;;;;;;16.51;76.37;100371.53;5020867;28;20775;-74
2023/08/31 07:38:31;;;;;;;5.30;4.37;;;;;;;16.52;76.32;100370.44;5021846;28;20203;-74
2023/08/31 07:40:57;;;;;;;4.67;4.27;;;;;;;16.51;76.17;100371.53;5020561;28;20207;-74
2023/08/31 07:43:26;;;;;;;5.10;4.33;;;;;;;16.48;74.65;100374.97;5020111;28;21131;-76
2023/08/31 07:45:53;;;;;;;6.43;4.27;;;;;;;16.47;74.62;100364.66;5021925;28;20199;-74
2023/08/31 07:48:19;;;;;;;4.70;4.30;;;;;;;16.52;74.99;100364.34;5021593;28;20686;-74
2023/08/31 07:50:46;;;;;;;4.60;4.20;;;;;;;16.57;75.42;100380.72;5002022;28;20204;-74
2023/08/31 07:53:12;;;;;;;4.10;3.80;;;;;;;16.70;76.53;100384.66;5020813;28;20211;-74
2023/08/31 07:55:40;;;;;;;4.57;4.17;;;;;;;16.80;76.69;100383.97;5021121;28;20199;-74
2023/08/31 07:58:06;;;;;;;4.17;3.83;;;;;;;16.86;74.31;100387.81;5019805;28;20696;-74
2023/08/31 08:00:34;;;;;;;3.80;3.17;;;;;;;16.89;74.13;100397.75;5022930;28;20898;-74
2023/08/31 08:03:00;;;;;;;3.73;3.40;;;;;;;16.91;73.65;100397.34;5023253;28;20222;-74
2023/08/31 08:05:28;;;;;;;3.33;3.03;;;;;;;16.99;74.86;100394.38;5023087;28;20437;-74
2023/08/31 08:07:54;;;;;;;4.70;3.53;;;;;;;17.07;75.93;100406.59;5022703;28;20199;-73
2023/08/31 08:10:20;;;;;;;3.53;2.73;;;;;;;17.11;75.06;100396.72;4996403;28;20665;-73
2023/08/31 08:12:47;;;;;;;5.80;3.20;;;;;;;17.12;71.79;100398.25;5001115;28;20699;-74
2023/08/31 08:15:14;;;;;;;2.90;2.70;;;;;;;17.16;71.98;100409.72;5022526;28;20227;-74
2023/08/31 08:17:42;;;;;;;4.07;2.97;;;;;;;17.12;73.43;100400.91;5023302;28;20288;-74
2023/08/31 08:20:10;;;;;;;5.20;2.57;;;;;;;17.18;71.33;100409.34;5023549;28;20210;-74
2023/08/31 08:22:36;;;;;;;4.37;2.43;;;;;;;17.20;70.54;100410.50;5022599;28;20235;-74
2023/08/31 08:25:03;;;;;;;3.07;2.10;;;;;;;17.25;71.03;100409.38;5023024;28;20227;-74
2023/08/31 08:27:31;;;;;;;3.73;2.40;;;;;;;17.25;70.01;100406.72;5023011;28;20266;-75
2023/08/31 08:29:57;;;;;;;2.33;2.13;;;;;;;17.30;70.88;100401.78;5023925;28;20757;-74
2023/08/31 08:32:24;;;;;;;3.33;2.40;;;;;;;17.35;71.08;100411.34;5021812;28;20582;-75
2023/08/31 08:34:52;;;;;;;2.97;2.17;;;;;;;17.37;71.27;100415.16;5023475;28;20680;-74
2023/08/31 08:37:18;;;;;;;3.37;2.60;;;;;;;17.40;71.00;100413.69;5022719;28;20223;-74
2023/08/31 08:39:49;;;;;;;2.67;2.47;;;;;;;17.42;70.50;100417.50;5022736;28;20219;-74
2023/08/31 08:42:18;;;;;;;4.60;2.70;;;;;;;17.42;71.47;100412.16;5023845;28;20215;-75
2023/08/31 08:44:45;;;;;;;5.43;2.37;;;;;;;17.44;72.15;100417.13;5023868;28;20214;-75
2023/08/31 08:47:12;;;;;;;3.07;2.47;;;;;;;17.45;70.00;100416.75;5022533;28;20222;-74
2023/08/31 08:49:39;;;;;;;4.50;2.40;;;;;;;17.52;69.38;100416.00;5022325;28;20206;-74
2023/08/31 08:52:07;;;;;;;2.97;2.20;;;;;;;17.65;69.27;100420.63;5003587;28;20211;-72
2023/08/31 08:54:34;;;;;;;2.03;1.83;;;;;;;17.76;69.41;100418.03;5021538;28;20254;-74
2023/08/31 08:57:01;;;;;;;4.63;2.30;;;;;;;17.94;69.20;100416.16;5020934;28;20235;-73
2023/08/31 08:59:28;;;;;;;5.87;2.07;;;;;;;18.11;66.46;100418.88;5000666;28;20294;-73
2023/08/31 09:01:54;;;;;;;2.93;1.70;;;;;;;18.22;66.97;100419.63;5019273;28;20866;-73
2023/08/31 09:04:20;;;;;;;3.80;2.00;;;;;;;18.23;65.53;100415.84;5018694;28;20216;-74
2023/08/31 09:06:47;;;;;;;2.13;1.87;;;;;;;18.26;66.13;100417.75;5017773;28;20215;-74
2023/08/31 09:09:16;;;;;;;4.80;1.90;;;;;;;18.23;65.58;100425.75;5018026;28;20206;-73
2023/08/31 09:11:43;;;;;;;3.27;1.80;;;;;;;18.14;65.50;100420.00;5017861;28;20234;-73
2023/08/31 09:14:16;;;;;;;4.50;1.70;;;;;;;18.18;65.58;100424.25;5018265;28;20223;-73
2023/08/31 09:16:45;;;;;;;4.13;2.07;;;;;;;18.26;67.13;100420.41;5019094;28;20868;-74
2023/08/31 09:19:19;;;;;;;2.83;1.50;;;;;;;18.28;64.40;100428.84;5019187;28;20214;-73
2023/08/31 09:21:45;;;;;;;5.33;1.70;;;;;;;18.27;63.38;100424.63;5017925;28;20210;-73
2023/08/31 09:24:13;;;;;;;2.83;1.70;;;;;;;18.29;63.94;100435.72;5018274;28;20327;-73
2023/08/31 09:26:44;;;;;;;2.13;1.30;;;;;;;18.35;64.71;100434.22;5019600;28;21148;-73
2023/08/31 09:29:10;;;;;;;2.00;1.80;;;;;;;18.41;65.28;100434.59;5018808;28;20203;-74
2023/08/31 09:31:37;;;;;;;3.10;1.60;;;;;;;18.52;66.05;100436.13;5018023;28;20204;-73
2023/08/31 09:34:04;;;;;;;2.77;1.57;;;;;;;18.56;62.30;100436.13;4998456;28;20227;-71
2023/08/31 09:36:30;;;;;;;2.90;1.77;;;;;;;18.66;63.73;100433.47;5013632;28;20211;-72
2023/08/31 09:38:59;;;;;;;2.80;1.53;;;;;;;18.75;62.73;100425.06;5014232;28;20210;-71
2023/08/31 09:41:25;;;;;;;1.93;1.80;;;;;;;18.86;63.95;100421.22;4994871;28;21250;-72
2023/08/31 09:43:53;;;;;;;3.37;1.87;;;;;;;18.98;62.20;100425.41;5014793;28;20234;-72
2023/08/31 09:46:21;;;;;;;3.47;1.57;;;;;;;19.06;61.92;100433.06;5014455;28;20718;-72
2023/08/31 09:48:48;;;;;;;4.23;1.77;;;;;;;19.16;61.49;100426.13;5012788;28;20207;-72
2023/08/31 09:51:19;;;;;;;1.93;1.63;;;;;;;19.23;62.24;100421.56;5014363;28;20699;-72
2023/08/31 09:53:49;;;;;;;3.20;1.80;;;;;;;19.23;65.06;100432.28;5013505;28;20400;-71
2023/08/31 09:56:21;;;;;;;3.97;1.80;;;;;;;19.24;60.84;100431.13;5012456;28;20203;-72
2023/08/31 09:58:48;;;;;;;2.57;1.70;;;;;;;19.24;62.17;100428.44;4992448;28;20208;-73
2023/08/31 10:01:17;;;;;;;2.80;1.77;;;;;;;19.35;61.58;100420.38;5013898;28;20207;-72
2023/08/31 10:03:44;;;;;;;4.70;1.90;;;;;;;19.49;59.82;100423.00;5012192;28;20934;-72
2023/08/31 10:06:12;;;;;;;2.83;1.93;;;;;;;19.67;63.72;100429.06;5013099;28;20203;-73
2023/08/31 10:08:39;;;;;;;2.30;1.67;;;;;;;19.80;68.39;100428.22;5013511;28;20196;-71
2023/08/31 10:11:07;;;;;;;7.13;2.20;;;;;;;19.82;68.56;100435.88;5012178;28;20207;-71
2023/08/31 10:13:37;;;;;;;5.10;1.80;;;;;;;19.65;64.51;100417.97;4992033;28;20309;-72
2023/08/31 10:16:05;;;;;;;8.27;1.80;;;;;;;19.46;64.60;100415.75;5013621;28;20234;-71
2023/08/31 10:18:35;;;;;;;5.23;2.00;;;;;;;19.27;65.02;100425.00;5013588;28;20207;-71
2023/08/31 10:21:03;;;;;;;2.30;2.07;;;;;;;19.05;66.07;100418.13;5013630;28;20203;-71
2023/08/31 10:23:30;;;;;;;4.50;2.77;;;;;;;18.87;66.88;100432.69;5014772;28;20231;-72
2023/08/31 10:26:04;;;;;;;6.97;2.80;;;;;;;18.65;68.19;100433.84;5014922;28;20195;-72
2023/08/31 10:28:39;;;;;;;3.53;2.43;;;;;;;18.47;70.02;100444.53;5015137;28;20215;-71
2023/08/31 10:31:06;;;;;;;4.17;2.87;;;;;;;18.30;69.40;100441.81;5015274;28;20208;-72
2023/08/31 10:33:36;;;;;;;4.80;2.93;;;;;;;18.17;69.17;100444.06;5015578;28;20281;-72
2023/08/31 10:36:02;;;;;;;3.67;2.90;;;;;;;18.06;70.58;100431.84;5014702;28;20310;-71
2023/08/31 10:38:31;;;;;;;3.83;3.23;;;;;;;17.93;71.20;100436.78;5015842;28;20214;-71
2023/08/31 10:41:03;;;;;;;3.67;3.00;;;;;;;17.88;72.65;100441.72;5015426;28;20195;-72
2023/08/31 10:43:44;;;;;;;6.90;3.20;;;;;;;17.84;73.53;100444.38;5016820;28;20247;-71
2023/08/31 10:46:16;;;;;;;5.20;4.20;;;;;;;17.85;73.64;100443.22;5017089;28;20196;-72
2023/08/31 10:48:54;;;;;;;3.87;3.43;;;;;;;17.93;74.90;100436.78;4990415;28;20215;-71
2023/08/31 10:51:23;;;;;;;4.13;3.67;;;;;;;18.10;75.92;100436.03;5014716;28;20206;-73
2023/08/31 10:53:49;;;;;;;5.63;4.00;;;;;;;18.28;75.29;100430.72;5014593;28;20435;-72
2023/08/31 10:56:17;;;;;;;5.00;3.07;;;;;;;18.42;70.73;100436.88;5014046;28;20219;-71
2023/08/31 10:58:44;;;;;;;4.60;2.80;;;;;;;18.52;68.85;100440.72;5012560;28;20214;-71
2023/08/31 11:01:10;;;;;;;2.87;2.57;;;;;;;18.73;68.71;100448.75;5013793;28;20208;-72
2023/08/31 11:03:59;;;;;;;2.70;2.03;;;;;;;18.91;67.25;100436.91;5013638;28;20222;-72
2023/08/31 11:06:29;;;;;;;3.57;1.80;;;;;;;19.02;64.90;100442.22;5011723;28;20588;-71
2023/08/31 11:08:56;;;;;;;2.40;1.60;;;;;;;19.11;63.93;100437.25;5012876;28;20207;-73
2023/08/31 11:11:24;;;;;;;3.50;1.83;;;;;;;19.18;64.45;100429.97;5013154;28;20210;-71
2023/08/31 11:13:57;;;;;;;2.07;1.57;;;;;;;19.18;63.75;100424.59;5012127;28;20254;-73
2023/08/31 11:16:23;;;;;;;1.80;1.60;;;;;;;19.28;62.48;100429.19;5011184;28;20215;-72
2023/08/31 11:18:50;;;;;;;3.20;1.90;;;;;;;19.39;61.64;100427.25;5012330;28;20203;-73
2023/08/31 11:21:18;;;;;;;1.60;1.47;;;;;;;19.53;62.36;100421.84;5012802;28;20203;-72
2023/08/31 11:23:44;;;;;;;2.07;1.20;;;;;;;19.68;58.26;100404.56;5012672;28;20301;-71
2023/08/31 11:26:11;;;;;;;3.13;1.30;;;;;;;19.89;58.78;100423.22;5010687;28;20203;-71